createdAt,value
2023-02-08T07:06:35.314Z,17.50
2023-02-08T07:09:03.517Z,23.10
2023-02-08T07:11:31.015Z,20.70
2023-02-08T07:13:58.514Z,18.75
2023-02-08T07:16:26.384Z,21.58
2023-02-08T07:18:53.503Z,16.85
2023-02-08T07:21:24.049Z,22.40
2023-02-08T07:23:56.572Z,21.02
2023-02-08T07:26:23.450Z,23.88
2023-02-08T07:28:52.852Z,25.95
2023-02-08T07:31:19.716Z,29.08
2023-02-08T07:33:50.609Z,32.20
2023-02-08T07:36:21.067Z,27.48
2023-02-08T07:38:58.361Z,18.17
2023-02-08T07:41:25.434Z,25.67
2023-02-08T07:43:52.341Z,18.13
2023-02-08T07:46:21.132Z,20.02
2023-02-08T07:48:52.860Z,22.60
2023-02-08T07:51:19.730Z,23.40
2023-02-08T07:53:50.485Z,23.80
2023-02-08T07:56:17.730Z,31.92
2023-02-08T07:58:45.152Z,27.15
2023-02-08T08:01:21.897Z,22.13
2023-02-08T08:03:51.511Z,24.60
2023-02-08T08:06:22.835Z,19.88
2023-02-08T08:08:50.188Z,18.98
2023-02-08T08:11:18.548Z,18.48
2023-02-08T08:13:45.494Z,18.52
2023-02-08T08:16:12.873Z,17.00
2023-02-08T08:18:39.765Z,13.13
2023-02-08T08:21:06.901Z,16.53
2023-02-08T08:23:33.742Z,17.10
2023-02-08T08:26:00.805Z,15.50
2023-02-08T08:28:28.088Z,11.77
2023-02-08T08:30:55.062Z,14.73
2023-02-08T08:33:22.105Z,15.07
2023-02-08T08:35:48.904Z,11.73
2023-02-08T08:38:16.498Z,11.10
2023-02-08T08:40:43.496Z,14.60
2023-02-08T08:43:10.454Z,15.07
2023-02-08T08:45:37.376Z,17.47
2023-02-08T08:48:04.653Z,15.87
2023-02-08T08:50:31.480Z,15.03
2023-02-08T08:52:58.265Z,13.83
2023-02-08T08:55:26.001Z,17.90
2023-02-08T08:57:53.819Z,13.33
2023-02-08T09:00:20.941Z,16.60
2023-02-08T09:02:49.719Z,16.07
2023-02-08T09:05:16.585Z,18.85
2023-02-08T09:07:43.394Z,13.87
2023-02-08T09:10:10.200Z,12.87
2023-02-08T09:12:37.056Z,19.20
2023-02-08T09:15:04.238Z,13.60
2023-02-08T09:17:31.701Z,16.40
2023-02-08T09:19:58.457Z,14.67
2023-02-08T09:22:25.164Z,10.10
2023-02-08T09:24:53.789Z,20.70
2023-02-08T09:27:20.512Z,11.63
2023-02-08T09:29:47.357Z,13.00
2023-02-08T09:32:14.126Z,13.80
2023-02-08T09:34:41.021Z,13.20
2023-02-08T09:37:08.540Z,11.95
2023-02-08T09:39:35.341Z,15.57
2023-02-08T09:42:01.929Z,12.95
2023-02-08T09:44:35.548Z,15.43
2023-02-08T09:47:08.662Z,14.83
2023-02-08T09:49:41.916Z,14.75
2023-02-08T09:52:15.180Z,13.23
2023-02-08T09:54:46.736Z,15.20
2023-02-08T09:57:17.781Z,11.30
2023-02-08T10:00:00.507Z,10.83
2023-02-08T10:02:30.068Z,15.43
2023-02-08T10:05:10.794Z,14.10
2023-02-08T10:07:40.027Z,12.97
2023-02-08T10:10:45.045Z,13.43
2023-02-08T10:13:41.194Z,10.70
2023-02-08T10:16:14.173Z,10.87
2023-02-08T10:18:52.781Z,9.57
2023-02-08T10:21:22.654Z,10.73
2023-02-08T10:24:19.086Z,9.07
2023-02-08T10:26:54.568Z,7.83
2023-02-08T10:29:33.545Z,7.57
2023-02-08T10:32:06.426Z,8.87
2023-02-08T10:35:03.505Z,9.97
2023-02-08T10:37:44.367Z,10.33
2023-02-08T10:40:31.671Z,12.33
2023-02-08T10:43:31.426Z,7.43
2023-02-08T10:46:16.742Z,12.33
2023-02-08T10:49:04.214Z,9.33
2023-02-08T10:51:33.135Z,10.27
2023-02-08T10:54:00.004Z,7.13
2023-02-08T10:56:29.860Z,6.60
2023-02-08T10:59:01.206Z,9.40
2023-02-08T11:01:28.183Z,13.97
2023-02-08T11:04:05.028Z,8.00
2023-02-08T11:06:32.063Z,7.17
2023-02-08T11:08:59.301Z,9.47
2023-02-08T11:11:29.928Z,8.47
2023-02-08T11:14:10.399Z,7.23
2023-02-08T11:16:38.520Z,4.73
2023-02-08T11:19:08.116Z,11.40
2023-02-08T11:21:37.995Z,6.43
2023-02-08T11:24:46.086Z,7.20
2023-02-08T11:27:34.609Z,6.53
2023-02-08T11:30:13.616Z,6.43
2023-02-08T11:32:41.856Z,4.93
2023-02-08T11:35:24.516Z,6.20
2023-02-08T11:37:53.368Z,3.77
2023-02-08T11:40:31.494Z,4.40
2023-02-08T11:42:58.844Z,5.00
2023-02-08T11:45:28.977Z,3.60
2023-02-08T11:47:56.556Z,4.33
2023-02-08T11:50:35.419Z,4.97
2023-02-08T11:53:04.926Z,5.40
2023-02-08T11:55:33.566Z,3.60
2023-02-08T11:58:02.864Z,5.30
2023-02-08T12:00:37.902Z,3.70
2023-02-08T12:03:18.715Z,4.17
2023-02-08T12:05:58.067Z,3.10
2023-02-08T12:08:41.221Z,4.13
2023-02-08T12:11:36.806Z,4.03
2023-02-08T12:14:21.938Z,4.07
2023-02-08T12:17:18.323Z,2.93
2023-02-08T12:20:00.907Z,2.30
2023-02-08T12:22:29.393Z,3.70
2023-02-08T12:25:00.998Z,6.77
2023-02-08T12:27:40.263Z,3.27
2023-02-08T12:30:11.502Z,3.27
2023-02-08T12:32:44.367Z,2.40
2023-02-08T12:35:33.217Z,3.43
2023-02-08T12:38:35.860Z,3.20
2023-02-08T12:41:17.931Z,4.07
2023-02-08T12:44:22.342Z,6.57
2023-02-08T12:46:49.161Z,2.80
2023-02-08T12:49:50.401Z,3.70
2023-02-08T12:52:42.648Z,3.70
2023-02-08T12:55:37.680Z,3.57
2023-02-08T12:58:24.675Z,3.53
2023-02-08T13:00:52.751Z,4.97
2023-02-08T13:03:32.096Z,4.13
2023-02-08T13:06:02.612Z,8.67
2023-02-08T13:08:41.700Z,9.87
2023-02-08T13:11:21.163Z,6.20
2023-02-08T13:13:56.987Z,5.80
2023-02-08T13:16:28.340Z,7.47
2023-02-08T13:19:17.129Z,2.53
2023-02-08T13:21:44.400Z,4.97
2023-02-08T13:24:25.803Z,4.73
2023-02-08T13:26:52.794Z,3.77
2023-02-08T13:29:20.752Z,4.27
2023-02-08T13:31:51.899Z,4.07
2023-02-08T13:34:38.668Z,3.10
2023-02-08T13:37:24.655Z,5.03
2023-02-08T13:40:08.521Z,4.33
2023-02-08T13:42:47.764Z,4.53
2023-02-08T13:45:28.957Z,5.80
2023-02-08T13:48:03.913Z,5.70
2023-02-08T13:50:57.808Z,4.57
2023-02-08T13:53:40.043Z,5.53
2023-02-08T13:56:11.923Z,4.50
2023-02-08T13:58:47.758Z,6.47
2023-02-08T14:01:14.517Z,4.23
2023-02-08T14:03:41.868Z,5.23
2023-02-08T14:06:17.720Z,4.23
2023-02-08T14:09:18.777Z,5.70
2023-02-08T14:12:00.811Z,4.63
2023-02-08T14:14:31.582Z,4.87
2023-02-08T14:17:04.533Z,6.10
2023-02-08T14:19:39.648Z,6.90
2023-02-08T14:22:12.626Z,3.37
2023-02-08T14:24:41.727Z,3.67
2023-02-08T14:27:25.312Z,2.97
2023-02-08T14:30:16.892Z,5.10
2023-02-08T14:32:49.128Z,7.47
2023-02-08T14:35:15.842Z,4.90
2023-02-08T14:37:44.501Z,3.07
2023-02-08T14:40:23.629Z,4.10
2023-02-08T14:43:18.917Z,5.17
2023-02-08T14:45:51.818Z,7.00
2023-02-08T14:48:32.813Z,3.47
2023-02-08T14:51:11.603Z,3.83
2023-02-08T14:53:48.813Z,3.13
2023-02-08T14:56:34.270Z,23.43
2023-02-08T14:59:12.205Z,3.40
2023-02-08T15:01:49.013Z,3.30
2023-02-08T15:04:18.449Z,3.23
2023-02-08T15:07:04.022Z,8.27
2023-02-08T15:09:32.791Z,4.40
2023-02-08T15:12:11.549Z,3.97
2023-02-08T15:14:40.860Z,3.47
2023-02-08T15:17:19.605Z,2.97
2023-02-08T15:19:46.618Z,2.70
2023-02-08T15:22:17.517Z,2.63
2023-02-08T15:24:56.005Z,4.20
2023-02-08T15:27:33.241Z,4.03
2023-02-08T15:30:01.043Z,4.40
2023-02-08T15:32:29.317Z,3.37
2023-02-08T15:35:02.060Z,3.47
2023-02-08T15:37:33.738Z,4.40
2023-02-08T15:40:01.743Z,3.87
2023-02-08T15:42:31.831Z,2.50
2023-02-08T15:45:00.994Z,3.93
2023-02-08T15:47:31.129Z,5.10
2023-02-08T15:49:59.075Z,3.57
2023-02-08T15:52:32.590Z,3.70
2023-02-08T15:54:59.537Z,4.67
2023-02-08T15:57:32.179Z,4.20
2023-02-08T15:59:59.259Z,4.90
2023-02-08T16:02:34.339Z,4.70
2023-02-08T16:05:04.323Z,3.97
2023-02-08T16:07:40.926Z,4.23
2023-02-08T16:10:08.967Z,6.60
2023-02-08T16:12:36.165Z,15.30
2023-02-08T16:15:03.495Z,5.53
2023-02-08T16:17:44.047Z,4.40
2023-02-08T16:20:24.098Z,5.33
2023-02-08T16:23:21.786Z,4.00
2023-02-08T16:25:51.478Z,4.30
2023-02-08T16:28:33.971Z,5.13
2023-02-08T16:31:03.252Z,6.67
2023-02-08T16:33:32.354Z,5.20
2023-02-08T16:36:03.138Z,8.13
2023-02-08T16:38:32.193Z,10.50
2023-02-08T16:41:12.173Z,4.00
2023-02-08T16:43:44.302Z,5.60
2023-02-08T16:46:11.832Z,4.63
2023-02-08T16:48:41.216Z,6.97
2023-02-08T16:51:16.893Z,7.07
2023-02-08T16:53:47.093Z,6.03
2023-02-08T16:56:15.960Z,5.30
2023-02-08T16:58:43.666Z,5.17
2023-02-08T17:01:13.297Z,7.07
2023-02-08T17:03:41.364Z,6.83
2023-02-08T17:06:31.837Z,5.50
2023-02-08T17:09:00.410Z,10.40
2023-02-08T17:11:27.611Z,5.30
2023-02-08T17:13:54.701Z,11.93
2023-02-08T17:16:23.931Z,5.70
2023-02-08T17:18:50.908Z,7.17
2023-02-08T17:21:18.411Z,8.07
2023-02-08T17:23:45.986Z,8.57
2023-02-08T17:26:14.149Z,6.43
2023-02-08T17:28:41.002Z,4.13
2023-02-08T17:31:10.724Z,4.97
2023-02-08T17:33:40.212Z,5.30
2023-02-08T17:36:10.402Z,9.47
2023-02-08T17:38:41.389Z,7.93
2023-02-08T17:41:19.333Z,4.93
2023-02-08T17:43:50.473Z,5.97
2023-02-08T17:46:20.496Z,4.57
2023-02-08T17:48:48.439Z,4.47
2023-02-08T17:51:17.688Z,6.17
2023-02-08T17:53:45.174Z,6.33
2023-02-08T17:56:13.541Z,8.30
2023-02-08T17:58:40.909Z,6.10
2023-02-08T18:01:08.995Z,7.20
2023-02-08T18:03:36.667Z,6.43
2023-02-08T18:06:06.205Z,7.30
2023-02-08T18:08:33.018Z,11.33
2023-02-08T18:11:04.565Z,9.47
2023-02-08T18:13:31.681Z,7.47
2023-02-08T18:15:58.581Z,12.17
2023-02-08T18:18:25.506Z,9.33
2023-02-08T18:20:52.326Z,7.90
2023-02-08T18:23:29.291Z,10.07
2023-02-08T18:26:05.455Z,9.23
2023-02-08T18:28:32.448Z,9.77
2023-02-08T18:31:04.370Z,9.97
2023-02-08T18:33:32.233Z,15.00
2023-02-08T18:35:59.136Z,10.30
2023-02-08T18:38:26.231Z,13.17
2023-02-08T18:40:53.717Z,14.83
2023-02-08T18:43:20.780Z,11.17
2023-02-08T18:46:01.902Z,7.63
2023-02-08T18:48:29.173Z,12.90
2023-02-08T18:51:00.220Z,8.77
2023-02-08T18:53:27.759Z,6.73
2023-02-08T18:55:55.472Z,6.73
2023-02-08T18:58:23.425Z,7.10
2023-02-08T19:00:50.992Z,10.13
2023-02-08T19:03:21.514Z,13.40
2023-02-08T19:05:49.050Z,12.87
2023-02-08T19:08:20.623Z,12.27
2023-02-08T19:10:47.461Z,15.77
2023-02-08T19:13:14.294Z,9.77
2023-02-08T19:15:41.628Z,7.87
2023-02-08T19:18:09.046Z,11.53
2023-02-08T19:20:38.066Z,9.57
2023-02-08T19:23:05.776Z,11.50
2023-02-08T19:25:36.925Z,9.37
2023-02-08T19:28:07.516Z,13.83
2023-02-08T19:30:36.109Z,11.97
2023-02-08T19:33:03.581Z,10.27
2023-02-08T19:35:30.513Z,9.60
2023-02-08T19:37:58.193Z,11.07
2023-02-08T19:40:25.180Z,8.23
2023-02-08T19:42:52.249Z,10.53
2023-02-08T19:45:19.073Z,8.90
2023-02-08T19:47:51.331Z,11.00
2023-02-08T19:50:18.529Z,10.60
2023-02-08T19:52:45.412Z,12.50
2023-02-08T19:55:12.347Z,12.00
2023-02-08T19:57:40.212Z,10.60
2023-02-08T20:00:17.674Z,14.97
2023-02-08T20:02:49.690Z,10.50
2023-02-08T20:05:18.975Z,10.33
2023-02-08T20:07:45.933Z,8.48
2023-02-08T20:10:12.740Z,11.60
2023-02-08T20:12:39.608Z,9.93
2023-02-08T20:15:06.674Z,11.60
2023-02-08T20:17:33.708Z,12.80
2023-02-08T20:20:00.733Z,10.98
2023-02-08T20:22:27.827Z,12.93
2023-02-08T20:24:54.624Z,14.00
2023-02-08T20:27:21.496Z,12.85
2023-02-08T20:29:48.343Z,10.40
2023-02-08T20:32:15.166Z,14.02
2023-02-08T20:34:53.834Z,13.85
2023-02-08T20:37:25.524Z,15.88
2023-02-08T20:39:52.347Z,12.38
2023-02-08T20:42:19.274Z,17.50
2023-02-08T20:44:46.377Z,15.23
2023-02-08T20:47:14.343Z,18.58
2023-02-08T20:49:42.337Z,13.73
2023-02-08T20:52:09.403Z,14.30
2023-02-08T20:54:37.952Z,12.95
2023-02-08T20:57:06.509Z,15.07
2023-02-08T20:59:33.887Z,16.85
2023-02-08T21:02:00.954Z,21.25
2023-02-08T21:04:27.958Z,14.45
2023-02-08T21:06:55.059Z,14.35
2023-02-08T21:09:21.920Z,18.10
2023-02-08T21:11:49.709Z,16.17
2023-02-08T21:14:20.946Z,21.10
2023-02-08T21:16:49.632Z,20.98
2023-02-08T21:19:17.594Z,18.33
2023-02-08T21:21:44.580Z,20.10
2023-02-08T21:24:11.630Z,18.85
2023-02-08T21:26:38.729Z,18.75
2023-02-08T21:29:08.312Z,19.63
2023-02-08T21:31:36.793Z,21.42
2023-02-08T21:34:04.291Z,17.38
2023-02-08T21:36:31.467Z,23.33
2023-02-08T21:38:58.992Z,20.33
2023-02-08T21:41:31.153Z,20.20
2023-02-08T21:43:59.677Z,18.45
2023-02-08T21:46:28.468Z,18.50
2023-02-08T21:49:14.864Z,22.02
2023-02-08T21:52:00.932Z,19.33
2023-02-08T21:54:41.503Z,22.90
2023-02-08T21:57:11.948Z,19.00
2023-02-08T21:59:39.106Z,16.77
2023-02-08T22:02:08.983Z,18.58
2023-02-08T22:04:55.365Z,19.42
2023-02-08T22:07:24.095Z,14.45
2023-02-08T22:09:51.264Z,17.88
2023-02-08T22:12:20.778Z,14.73
2023-02-08T22:14:48.795Z,16.95
2023-02-08T22:17:16.119Z,16.52
2023-02-08T22:19:43.574Z,15.80
2023-02-08T22:22:10.966Z,18.95
2023-02-08T22:24:38.095Z,15.80
2023-02-08T22:27:05.050Z,20.20
2023-02-08T22:29:35.054Z,12.85
2023-02-08T22:32:02.055Z,15.80
2023-02-08T22:34:29.135Z,16.27
2023-02-08T22:37:04.705Z,18.23
2023-02-08T22:39:33.361Z,16.95
2023-02-08T22:42:03.960Z,23.58
2023-02-08T22:44:32.665Z,18.13
2023-02-08T22:47:01.923Z,19.70
2023-02-08T22:49:29.504Z,18.08
2023-02-08T22:51:56.723Z,16.55
2023-02-08T22:54:23.833Z,20.55
2023-02-08T22:56:51.894Z,22.67
2023-02-08T22:59:23.964Z,19.38
2023-02-08T23:01:52.877Z,17.52
2023-02-08T23:04:20.153Z,20.50
2023-02-08T23:06:50.704Z,20.65
2023-02-08T23:09:18.587Z,17.52
2023-02-08T23:11:47.929Z,19.27
2023-02-08T23:14:15.676Z,15.73
2023-02-08T23:16:43.116Z,19.38
2023-02-08T23:19:15.286Z,19.70
2023-02-08T23:21:45.989Z,18.40
2023-02-08T23:24:13.378Z,20.75
2023-02-08T23:26:40.887Z,25.10
2023-02-08T23:29:08.624Z,18.27
2023-02-08T23:31:36.562Z,22.30
2023-02-08T23:34:03.975Z,16.35
2023-02-08T23:36:30.980Z,20.23
2023-02-08T23:38:58.235Z,17.50
2023-02-08T23:41:25.317Z,18.00
2023-02-08T23:43:55.031Z,17.20
2023-02-08T23:46:25.822Z,18.45
2023-02-08T23:48:53.207Z,16.02
2023-02-08T23:51:23.355Z,14.77
2023-02-08T23:53:53.907Z,14.85
2023-02-08T23:56:30.000Z,17.13
2023-02-08T23:58:58.760Z,14.68
